Time;durP1;ratioP1;P1;durP2;ratioP2;P2;SDS_P1;SDS_P2;PMS_P1;PMS_P2;Temp;Humidity;BMP_temperature;BMP_pressure;BME280_temperature;BME280_humidity;BME280_pressure;Samples;Min_cycle;Max_cycle;Signal;HPM_P1;HPM_P2
2023/03/04 00:01:28;;;;;;;23.98;16.58;;;;;;;4.92;84.64;94650.00;4181123;28;20048;-55
2023/03/04 00:03:30;;;;;;;20.92;16.10;;;;;;;4.94;84.67;94644.69;4189490;28;20045;-56
2023/03/04 00:05:31;;;;;;;22.40;16.05;;;;;;;4.90;84.13;94643.28;4196630;28;20060;-57
2023/03/04 00:07:33;;;;;;;24.23;16.77;;;;;;;5.01;84.34;94648.44;4197027;28;20101;-57
2023/03/04 00:09:35;;;;;;;23.25;16.38;;;;;;;5.05;84.08;94651.59;4191997;28;20041;-58
2023/03/04 00:11:37;;;;;;;22.65;16.92;;;;;;;5.18;84.87;94654.00;4197152;28;20121;-59
2023/03/04 00:13:38;;;;;;;23.23;17.20;;;;;;;5.37;84.66;94648.09;4183863;28;20090;-60
2023/03/04 00:15:40;;;;;;;25.02;16.27;;;;;;;5.52;83.95;94641.59;4191133;28;20490;-58
2023/03/04 00:17:44;;;;;;;22.20;17.30;;;;;;;5.64;83.59;94645.78;4199363;28;20109;-58
2023/03/04 00:19:46;;;;;;;22.63;16.60;;;;;;;5.74;82.35;94638.00;4212026;28;20106;-57
2023/03/04 00:21:48;;;;;;;22.80;16.30;;;;;;;5.73;81.14;94634.59;4213119;28;20520;-59
2023/03/04 00:23:49;;;;;;;23.98;16.25;;;;;;;5.54;81.26;94632.72;4212796;28;20481;-59
2023/03/04 00:25:51;;;;;;;26.40;17.00;;;;;;;5.38;82.32;94634.13;4213079;28;20076;-59
2023/03/04 00:27:53;;;;;;;23.00;16.30;;;;;;;5.07;82.55;94636.72;4211972;28;20056;-58
2023/03/04 00:29:55;;;;;;;21.33;16.33;;;;;;;5.03;83.12;94633.53;4213040;28;20040;-60
2023/03/04 00:31:57;;;;;;;24.63;17.05;;;;;;;4.87;84.09;94636.59;4212938;28;20105;-58
2023/03/04 00:33:59;;;;;;;22.80;16.40;;;;;;;4.90;83.96;94641.53;4212366;28;20090;-60
2023/03/04 00:36:00;;;;;;;24.10;17.35;;;;;;;4.93;84.21;94636.09;4212742;28;20052;-58
2023/03/04 00:38:02;;;;;;;26.35;17.98;;;;;;;5.00;84.26;94631.19;4212664;28;20056;-58
2023/03/04 00:40:05;;;;;;;27.75;18.65;;;;;;;5.09;83.89;94634.81;4204612;28;20060;-59
2023/03/04 00:42:06;;;;;;;25.30;17.05;;;;;;;5.20;83.79;94632.13;4209201;28;20101;-59
2023/03/04 00:44:08;;;;;;;24.52;18.00;;;;;;;5.22;82.94;94627.63;4212321;28;20135;-57
2023/03/04 00:46:09;;;;;;;23.10;16.48;;;;;;;5.18;82.77;94634.03;4203845;28;20589;-56
2023/03/04 00:48:11;;;;;;;28.50;18.17;;;;;;;5.31;82.96;94624.28;4195100;28;20048;-55
2023/03/04 00:50:13;;;;;;;22.77;16.23;;;;;;;5.38;83.10;94635.00;4209805;28;20063;-57
2023/03/04 00:52:14;;;;;;;22.52;16.35;;;;;;;5.44;82.03;94628.44;4193550;28;20123;-54
2023/03/04 00:54:16;;;;;;;23.25;16.92;;;;;;;5.56;82.08;94626.59;4195566;28;20048;-56
2023/03/04 00:56:17;;;;;;;22.80;16.23;;;;;;;5.61;81.86;94635.63;4194949;28;20166;-57
2023/03/04 00:58:19;;;;;;;25.85;17.33;;;;;;;5.42;80.81;94630.34;4197016;28;20404;-59
2023/03/04 01:00:21;;;;;;;22.25;16.10;;;;;;;5.53;81.49;94630.28;4183756;28;20059;-57
2023/03/04 01:02:23;;;;;;;23.23;16.60;;;;;;;5.66;81.18;94624.84;4202825;28;20196;-56
2023/03/04 01:04:24;;;;;;;21.00;15.35;;;;;;;5.81;81.28;94627.91;4212832;28;20109;-58
2023/03/04 01:06:26;;;;;;;22.30;16.23;;;;;;;5.92;80.26;94626.03;4211220;28;20056;-57
2023/03/04 01:08:28;;;;;;;23.23;16.35;;;;;;;6.04;79.98;94629.38;4211440;28;20047;-59
2023/03/04 01:10:30;;;;;;;21.95;16.23;;;;;;;6.14;79.72;94622.41;4187743;28;20458;-58
2023/03/04 01:12:31;;;;;;;22.85;15.18;;;;;;;6.21;78.95;94625.31;4209994;28;20101;-59
2023/03/04 01:14:33;;;;;;;20.48;15.07;;;;;;;6.30;78.48;94632.31;4191055;28;20060;-56
2023/03/04 01:16:35;;;;;;;21.50;14.95;;;;;;;6.32;78.17;94622.59;4179810;28;20380;-52
2023/03/04 01:18:36;;;;;;;23.85;15.00;;;;;;;6.36;77.72;94618.75;4197650;28;20048;-53
2023/03/04 01:20:38;;;;;;;22.13;15.45;;;;;;;6.36;77.39;94620.53;4212012;28;20044;-54
2023/03/04 01:22:40;;;;;;;19.98;14.18;;;;;;;6.33;76.86;94623.41;4209844;28;20073;-52
2023/03/04 01:24:45;;;;;;;22.67;15.52;;;;;;;6.34;76.78;94614.66;4210963;28;20051;-54
2023/03/04 01:26:46;;;;;;;18.98;13.82;;;;;;;6.39;76.86;94615.09;4201572;28;20052;-55
2023/03/04 01:28:48;;;;;;;20.98;14.90;;;;;;;6.42;76.81;94620.00;4196597;28;20059;-54
2023/03/04 01:30:50;;;;;;;23.55;14.75;;;;;;;6.45;76.62;94608.50;4213171;28;20044;-50
2023/03/04 01:32:51;;;;;;;20.10;13.70;;;;;;;6.45;75.87;94613.69;4196178;28;20100;-53
2023/03/04 01:34:53;;;;;;;19.27;13.02;;;;;;;6.44;75.80;94610.28;4191401;28;20430;-57
2023/03/04 01:36:55;;;;;;;19.33;13.60;;;;;;;6.42;76.28;94603.56;4181464;28;20522;-59
2023/03/04 01:38:56;;;;;;;19.63;13.40;;;;;;;6.39;75.49;94599.47;4196115;28;20045;-58
2023/03/04 01:40:58;;;;;;;19.95;13.00;;;;;;;6.38;75.63;94597.00;4187812;28;20052;-58
2023/03/04 01:43:00;;;;;;;20.50;13.90;;;;;;;6.39;76.03;94594.25;4197110;28;20502;-58
2023/03/04 01:45:06;;;;;;;22.13;14.18;;;;;;;6.42;75.82;94593.97;4189363;28;20061;-57
2023/03/04 01:47:08;;;;;;;19.88;14.13;;;;;;;6.39;75.84;94591.66;4190605;28;20060;-57
2023/03/04 01:49:13;;;;;;;19.27;13.18;;;;;;;6.42;75.56;94588.78;4178636;28;20060;-55
2023/03/04 01:51:17;;;;;;;18.40;13.30;;;;;;;6.13;75.79;94594.78;4191866;28;20512;-56
2023/03/04 01:53:23;;;;;;;20.48;14.25;;;;;;;5.98;76.55;94590.91;4179098;28;20037;-55
2023/03/04 01:55:30;;;;;;;18.13;13.02;;;;;;;5.91;76.55;94597.56;4203671;28;20051;-57
2023/03/04 01:57:34;;;;;;;20.42;14.27;;;;;;;5.97;77.27;94591.03;4196470;28;20378;-58
2023/03/04 01:59:35;;;;;;;18.95;13.48;;;;;;;6.00;76.58;94588.16;4193515;28;20170;-58
2023/03/04 02:01:38;;;;;;;18.48;14.18;;;;;;;6.07;76.48;94587.50;4189359;28;20049;-56
2023/03/04 02:03:41;;;;;;;20.10;14.02;;;;;;;6.10;76.14;94584.63;4183970;28;20051;-56
2023/03/04 02:05:46;;;;;;;19.23;13.50;;;;;;;6.15;76.13;94585.06;4182663;28;20060;-56
2023/03/04 02:07:54;;;;;;;19.80;13.52;;;;;;;6.20;75.87;94589.84;4186984;28;20748;-59
2023/03/04 02:09:55;;;;;;;18.95;13.73;;;;;;;6.20;75.41;94589.03;4194159;28;20106;-59
2023/03/04 02:11:57;;;;;;;18.20;13.10;;;;;;;6.26;75.84;94586.72;4191872;28;20053;-59
2023/03/04 02:13:59;;;;;;;20.25;14.52;;;;;;;6.29;75.22;94586.44;4186327;28;20102;-55
2023/03/04 02:16:01;;;;;;;19.00;13.93;;;;;;;6.25;75.30;94585.06;4206365;28;20051;-60
2023/03/04 02:18:34;;;;;;;18.83;13.68;;;;;;;6.32;75.15;94578.38;4208366;28;20052;-59
2023/03/04 02:20:59;;;;;;;18.35;13.75;;;;;;;6.34;75.46;94580.81;4169989;28;20045;-57
2023/03/04 02:23:19;;;;;;;23.27;14.07;;;;;;;6.38;75.39;94581.38;4200029;28;20052;-58
2023/03/04 02:25:24;;;;;;;20.23;13.20;;;;;;;6.41;74.78;94581.94;4210806;28;20044;-57
2023/03/04 02:27:25;;;;;;;17.77;13.40;;;;;;;6.42;74.58;94588.78;4197663;28;20150;-59
2023/03/04 02:29:28;;;;;;;18.88;13.77;;;;;;;6.42;74.37;94578.38;4210696;28;20493;-59
2023/03/04 02:31:35;;;;;;;19.33;14.48;;;;;;;6.40;74.69;94579.47;4190371;28;20499;-59
2023/03/04 02:33:37;;;;;;;20.05;14.18;;;;;;;6.39;74.79;94580.41;4191552;28;20049;-58
2023/03/04 02:35:39;;;;;;;20.88;14.10;;;;;;;6.40;74.76;94576.88;4190664;28;20088;-57
2023/03/04 02:37:40;;;;;;;18.27;13.32;;;;;;;6.38;74.72;94574.38;4186801;28;20589;-56
2023/03/04 02:39:44;;;;;;;18.55;14.18;;;;;;;6.37;74.57;94577.97;4203954;28;20417;-58
2023/03/04 02:41:47;;;;;;;20.15;14.95;;;;;;;6.41;74.96;94574.13;4198513;28;20055;-60
2023/03/04 02:43:51;;;;;;;21.13;14.32;;;;;;;6.46;74.92;94571.94;4186486;28;20067;-60
2023/03/04 02:45:52;;;;;;;18.17;13.30;;;;;;;6.48;74.50;94566.59;4199071;28;20048;-54
2023/03/04 02:47:54;;;;;;;21.65;14.57;;;;;;;6.43;74.61;94563.56;4186468;28;20076;-55
2023/03/04 02:49:55;;;;;;;19.65;14.23;;;;;;;6.39;74.45;94557.84;4198468;28;20231;-56
2023/03/04 02:52:00;;;;;;;19.55;13.88;;;;;;;6.42;74.44;94557.53;4193227;28;20460;-56
2023/03/04 02:54:02;;;;;;;21.95;14.70;;;;;;;6.44;74.36;94555.63;4195738;28;20040;-59
2023/03/04 02:56:04;;;;;;;20.15;14.57;;;;;;;6.45;74.32;94557.25;4193075;28;20139;-58
2023/03/04 02:58:06;;;;;;;18.70;14.45;;;;;;;6.45;74.24;94561.66;4191625;28;20087;-57
2023/03/04 03:00:08;;;;;;;19.88;14.18;;;;;;;6.45;74.10;94559.03;4193023;28;20080;-57
2023/03/04 03:02:09;;;;;;;19.50;13.70;;;;;;;6.44;74.39;94560.03;4199739;28;20113;-57
2023/03/04 03:04:11;;;;;;;18.77;13.35;;;;;;;6.45;74.20;94562.47;4210971;28;20075;-57
2023/03/04 03:06:13;;;;;;;22.67;15.02;;;;;;;6.42;74.09;94562.75;4203183;28;20056;-57
2023/03/04 03:08:15;;;;;;;19.20;14.20;;;;;;;6.40;74.32;94558.66;4192872;28;20084;-57
2023/03/04 03:10:20;;;;;;;22.15;15.27;;;;;;;6.37;74.32;94567.56;4183402;28;20052;-56
2023/03/04 03:12:24;;;;;;;19.70;13.57;;;;;;;6.36;74.06;94563.28;4193803;28;20479;-59
2023/03/04 03:14:26;;;;;;;21.67;14.45;;;;;;;6.36;74.75;94563.28;4193674;28;20048;-59
2023/03/04 03:16:27;;;;;;;23.90;15.40;;;;;;;6.38;74.37;94566.59;4186396;28;20040;-61
2023/03/04 03:18:29;;;;;;;21.98;15.20;;;;;;;6.40;74.26;94559.47;4203342;28;20504;-57
2023/03/04 03:20:31;;;;;;;19.58;14.25;;;;;;;6.43;74.08;94561.81;4184576;28;20064;-58
2023/03/04 03:22:32;;;;;;;21.40;14.15;;;;;;;6.40;74.16;94566.47;4203239;28;20080;-55
2023/03/04 03:24:34;;;;;;;20.60;13.98;;;;;;;6.31;74.38;94566.31;4198836;28;20048;-58
2023/03/04 03:26:36;;;;;;;19.15;13.88;;;;;;;6.32;74.78;94564.53;4212157;28;20078;-57
2023/03/04 03:28:37;;;;;;;19.77;14.18;;;;;;;6.34;75.05;94562.59;4211577;28;20052;-57
2023/03/04 03:30:39;;;;;;;22.13;14.80;;;;;;;6.31;74.65;94568.09;4205165;28;20109;-59
2023/03/04 03:32:41;;;;;;;19.08;14.35;;;;;;;6.29;74.52;94567.41;4207343;28;20056;-61
2023/03/04 03:34:42;;;;;;;19.85;13.98;;;;;;;6.32;74.73;94565.38;4187584;28;20045;-58
2023/03/04 03:36:44;;;;;;;22.60;15.02;;;;;;;6.34;74.88;94560.81;4194431;28;20679;-59
2023/03/04 03:38:45;;;;;;;20.48;14.20;;;;;;;6.28;74.49;94561.41;4188958;28;20071;-59
2023/03/04 03:40:47;;;;;;;22.58;15.50;;;;;;;6.33;74.68;94564.41;4187773;28;20049;-58
2023/03/04 03:42:49;;;;;;;22.10;14.15;;;;;;;6.32;74.54;94552.34;4195402;28;20071;-57
2023/03/04 03:44:54;;;;;;;21.38;15.13;;;;;;;6.29;74.43;94551.81;4186057;28;20465;-59
2023/03/04 03:46:56;;;;;;;20.33;14.63;;;;;;;6.29;74.61;94552.63;4189930;28;20056;-58
2023/03/04 03:48:58;;;;;;;21.65;14.52;;;;;;;6.29;74.80;94552.63;4192335;28;20057;-59
2023/03/04 03:51:00;;;;;;;22.27;14.80;;;;;;;6.29;74.99;94554.41;4184879;28;20059;-57
2023/03/04 03:53:02;;;;;;;19.00;14.13;;;;;;;6.28;74.84;94556.19;4196534;28;20407;-57
2023/03/04 03:55:04;;;;;;;22.83;14.07;;;;;;;6.27;75.13;94559.72;4196803;28;20133;-57
2023/03/04 03:57:06;;;;;;;21.45;15.35;;;;;;;6.28;74.99;94558.78;4214477;28;20105;-59
2023/03/04 03:59:08;;;;;;;23.17;15.90;;;;;;;6.29;74.90;94551.81;4211675;28;20056;-58
2023/03/04 04:01:09;;;;;;;22.02;15.02;;;;;;;6.28;74.61;94550.13;4198846;28;20422;-60
2023/03/04 04:03:13;;;;;;;20.00;14.95;;;;;;;6.25;74.62;94543.44;4183262;28;20052;-57
2023/03/04 04:05:15;;;;;;;21.75;14.68;;;;;;;6.27;74.56;94540.72;4196247;28;20075;-59
2023/03/04 04:07:17;;;;;;;19.95;14.65;;;;;;;6.25;75.28;94540.03;4201732;28;20128;-59
2023/03/04 04:09:19;;;;;;;20.70;13.88;;;;;;;6.20;74.89;94540.44;4204401;28;20047;-60
2023/03/04 04:11:20;;;;;;;21.88;15.27;;;;;;;6.19;75.18;94543.16;4193005;28;20049;-56
2023/03/04 04:13:22;;;;;;;22.40;15.48;;;;;;;6.18;74.75;94539.75;4200550;28;20051;-57
2023/03/04 04:15:24;;;;;;;19.38;14.27;;;;;;;6.21;74.95;94530.84;4197209;28;20086;-56
2023/03/04 04:17:26;;;;;;;20.77;15.35;;;;;;;6.17;75.09;94540.69;4200628;28;20063;-58
2023/03/04 04:19:27;;;;;;;22.48;15.05;;;;;;;6.18;75.10;94531.13;4189784;28;20041;-55
2023/03/04 04:21:29;;;;;;;20.23;15.60;;;;;;;6.17;74.56;94538.09;4185717;28;20045;-55
2023/03/04 04:23:31;;;;;;;21.00;15.65;;;;;;;6.13;74.22;94537.56;4193102;28;20045;-58
2023/03/04 04:25:32;;;;;;;21.05;15.25;;;;;;;6.10;75.15;94537.81;4196027;28;20340;-58
2023/03/04 04:27:34;;;;;;;20.75;15.30;;;;;;;6.05;74.98;94542.59;4197622;28;20056;-58
2023/03/04 04:29:36;;;;;;;21.48;15.57;;;;;;;6.02;74.85;94542.03;4192500;28;20474;-56
2023/03/04 04:31:38;;;;;;;21.42;14.18;;;;;;;6.00;75.00;94542.22;4187704;28;20533;-58
2023/03/04 04:33:39;;;;;;;21.33;15.25;;;;;;;5.95;75.30;94539.97;4190596;28;20044;-58
2023/03/04 04:35:41;;;;;;;21.67;15.55;;;;;;;5.99;75.27;94535.34;4200858;28;20045;-59
2023/03/04 04:37:42;;;;;;;21.55;16.00;;;;;;;6.00;75.70;94539.59;4188378;28;20114;-58
2023/03/04 04:39:44;;;;;;;21.70;15.40;;;;;;;6.03;75.25;94544.53;4194558;28;20459;-59
2023/03/04 04:41:46;;;;;;;21.58;15.43;;;;;;;6.01;75.16;94538.63;4203208;28;20060;-59
2023/03/04 04:43:48;;;;;;;23.40;15.48;;;;;;;6.01;74.67;94538.63;4195613;28;20064;-54
2023/03/04 04:45:50;;;;;;;23.27;16.33;;;;;;;6.00;74.68;94539.59;4192490;28;20127;-52
2023/03/04 04:47:52;;;;;;;22.70;15.25;;;;;;;6.01;74.92;94537.81;4199839;28;20055;-48
2023/03/04 04:49:54;;;;;;;22.45;16.60;;;;;;;5.99;74.81;94532.75;4198275;28;20047;-52
2023/03/04 04:51:56;;;;;;;24.63;16.42;;;;;;;5.99;74.61;94543.16;4193064;28;20053;-51
2023/03/04 04:53:58;;;;;;;21.63;14.88;;;;;;;6.00;74.85;94542.22;4184648;28;20065;-55
2023/03/04 04:56:10;;;;;;;23.63;14.57;;;;;;;5.99;74.27;94550.94;4203748;28;20052;-51
2023/03/04 04:58:12;;;;;;;20.25;14.38;;;;;;;5.99;73.99;94540.53;4186919;28;20355;-51
2023/03/04 05:00:14;;;;;;;22.15;14.68;;;;;;;5.99;74.09;94545.75;4207827;28;20048;-55
2023/03/04 05:02:15;;;;;;;23.70;15.68;;;;;;;5.98;73.97;94551.91;4196547;28;20058;-55
2023/03/04 05:04:17;;;;;;;21.05;14.90;;;;;;;5.94;73.95;94553.09;4194064;28;20632;-54
2023/03/04 05:06:20;;;;;;;21.00;14.27;;;;;;;5.93;73.90;94554.88;4202426;28;20044;-52
2023/03/04 05:08:21;;;;;;;23.30;15.68;;;;;;;5.93;73.64;94564.44;4212944;28;20060;-52
2023/03/04 05:10:23;;;;;;;23.90;16.17;;;;;;;5.93;74.08;94564.44;4200578;28;20082;-52
2023/03/04 05:12:25;;;;;;;23.00;16.27;;;;;;;5.93;73.91;94567.03;4199950;28;20442;-55
2023/03/04 05:14:26;;;;;;;20.23;15.35;;;;;;;5.95;73.53;94570.38;4213493;28;20869;-56
2023/03/04 05:16:28;;;;;;;23.38;15.98;;;;;;;5.93;73.64;94567.88;4213214;28;20052;-53
2023/03/04 05:18:30;;;;;;;22.63;15.65;;;;;;;5.89;74.36;94569.13;4197127;28;20052;-54
2023/03/04 05:20:31;;;;;;;26.98;17.40;;;;;;;5.91;74.19;94566.34;4183705;28;20044;-54
2023/03/04 05:22:33;;;;;;;26.35;17.13;;;;;;;5.88;74.54;94564.03;4195575;28;20072;-55
2023/03/04 05:24:35;;;;;;;26.63;18.20;;;;;;;5.82;74.78;94564.56;4185818;28;20143;-53
2023/03/04 05:26:37;;;;;;;25.40;17.98;;;;;;;5.83;74.68;94567.03;4180267;28;20052;-57
2023/03/04 05:28:38;;;;;;;26.38;17.95;;;;;;;5.88;74.47;94579.63;4184208;28;20098;-53
2023/03/04 05:30:42;;;;;;;24.75;18.50;;;;;;;5.93;74.34;94580.88;4188180;28;20068;-54
2023/03/04 05:32:44;;;;;;;24.40;15.88;;;;;;;5.98;74.11;94577.91;4191030;28;20051;-55
2023/03/04 05:34:46;;;;;;;23.90;16.73;;;;;;;6.01;73.86;94579.41;4194461;28;20049;-57
2023/03/04 05:36:50;;;;;;;25.05;16.30;;;;;;;5.99;73.85;94576.13;4185286;28;20072;-53
2023/03/04 05:38:52;;;;;;;24.50;16.73;;;;;;;6.00;73.98;94582.97;4187502;28;20471;-53
2023/03/04 05:41:03;;;;;;;23.52;15.43;;;;;;;6.01;73.23;94585.44;4180932;28;20465;-56
2023/03/04 05:43:05;;;;;;;23.67;16.60;;;;;;;6.05;73.75;94580.81;4180466;28;20057;-56
2023/03/04 05:45:07;;;;;;;25.50;16.65;;;;;;;6.07;73.45;94584.09;4180433;28;20426;-56
2023/03/04 05:47:09;;;;;;;27.60;15.07;;;;;;;6.08;73.23;94581.34;4191611;28;20048;-56
2023/03/04 05:49:10;;;;;;;23.00;16.30;;;;;;;6.07;73.03;94589.28;4207513;28;20081;-56
2023/03/04 05:51:12;;;;;;;22.05;16.17;;;;;;;6.07;73.29;94592.72;4208542;28;20394;-55
2023/03/04 05:53:14;;;;;;;23.50;15.52;;;;;;;6.10;73.98;94589.00;4199458;28;20077;-58
2023/03/04 05:55:16;;;;;;;27.67;17.15;;;;;;;6.17;74.22;94587.50;4185316;28;20048;-55
2023/03/04 05:57:17;;;;;;;22.50;14.80;;;;;;;6.24;73.53;94590.38;4178067;28;20083;-53
2023/03/04 05:59:19;;;;;;;23.77;14.93;;;;;;;6.28;73.45;94591.75;4192041;28;20098;-53
2023/03/04 06:01:21;;;;;;;24.10;15.57;;;;;;;6.32;72.94;94594.00;4194217;28;21392;-55
2023/03/04 06:03:22;;;;;;;24.50;16.67;;;;;;;6.28;73.03;94599.56;4185586;28;20051;-53
2023/03/04 06:05:24;;;;;;;24.98;16.35;;;;;;;6.23;72.96;94599.16;4195664;28;20547;-52
2023/03/04 06:07:26;;;;;;;26.50;17.08;;;;;;;6.24;73.27;94600.78;4200971;28;20053;-52
2023/03/04 06:09:28;;;;;;;27.05;17.45;;;;;;;6.29;73.66;94598.63;4193172;28;20101;-51
2023/03/04 06:11:29;;;;;;;24.25;16.75;;;;;;;6.38;73.64;94602.19;4191727;28;20049;-54
2023/03/04 06:13:31;;;;;;;56.95;33.92;;;;;;;6.40;72.80;94598.50;4196057;28;20052;-54
2023/03/04 06:15:33;;;;;;;43.90;27.70;;;;;;;6.40;72.56;94600.28;4200192;28;20568;-50
2023/03/04 06:17:35;;;;;;;25.80;15.45;;;;;;;5.99;72.98;94604.75;4195041;28;20059;-55
2023/03/04 06:19:37;;;;;;;24.05;15.45;;;;;;;5.67;74.80;94608.31;4199242;28;20592;-56
2023/03/04 06:21:39;;;;;;;21.20;15.25;;;;;;;5.70;75.42;94611.47;4199169;28;20091;-55
2023/03/04 06:23:40;;;;;;;26.23;16.48;;;;;;;5.81;75.31;94609.69;4197705;28;20048;-56
2023/03/04 06:25:42;;;;;;;26.42;16.83;;;;;;;5.89;74.95;94615.06;4187162;28;20041;-56
2023/03/04 06:27:45;;;;;;;24.10;16.98;;;;;;;5.99;75.04;94608.16;4185699;28;20045;-55
2023/03/04 06:29:47;;;;;;;24.75;16.38;;;;;;;6.06;75.07;94608.44;4195673;28;20048;-54
2023/03/04 06:31:48;;;;;;;26.23;15.23;;;;;;;6.06;74.00;94609.25;4195362;28;20052;-56
2023/03/04 06:33:50;;;;;;;23.27;14.38;;;;;;;6.12;74.08;94607.91;4189819;28;20107;-57
2023/03/04 06:35:54;;;;;;;23.58;15.90;;;;;;;6.13;73.65;94602.59;4182779;28;20049;-58
2023/03/04 06:37:56;;;;;;;23.17;15.07;;;;;;;6.20;74.03;94605.47;4195387;28;20060;-58
2023/03/04 06:39:57;;;;;;;28.10;15.95;;;;;;;6.21;74.45;94611.47;4185277;28;20052;-53
2023/03/04 06:41:59;;;;;;;21.13;14.38;;;;;;;6.33;73.95;94610.41;4199494;28;20540;-53
2023/03/04 06:44:04;;;;;;;23.15;15.55;;;;;;;6.30;74.05;94615.88;4191586;28;20076;-57
2023/03/04 06:46:09;;;;;;;24.40;15.77;;;;;;;6.29;74.01;94611.63;4186954;28;20060;-55
2023/03/04 06:48:11;;;;;;;23.02;13.90;;;;;;;6.28;74.01;94623.81;4193727;28;20474;-57
2023/03/04 06:50:13;;;;;;;22.02;13.77;;;;;;;6.31;73.95;94617.53;4189837;28;20423;-62
2023/03/04 06:52:14;;;;;;;20.15;12.05;;;;;;;6.30;73.46;94616.72;4195852;28;20076;-60
2023/03/04 06:54:16;;;;;;;17.20;12.88;;;;;;;6.36;73.85;94621.34;4186813;28;20134;-56
2023/03/04 06:56:18;;;;;;;16.80;11.70;;;;;;;6.44;73.45;94625.06;4208541;28;20428;-55
2023/03/04 06:58:19;;;;;;;17.17;11.00;;;;;;;6.38;72.41;94618.63;4201458;28;20049;-55
2023/03/04 07:00:22;;;;;;;13.75;9.90;;;;;;;6.47;72.91;94617.81;4185588;28;20063;-56
2023/03/04 07:02:24;;;;;;;18.52;12.25;;;;;;;6.56;72.41;94622.22;4183327;28;20056;-55
2023/03/04 07:04:26;;;;;;;22.42;16.27;;;;;;;6.62;72.42;94626.03;4204124;28;20395;-56
2023/03/04 07:06:28;;;;;;;25.58;18.38;;;;;;;6.46;72.43;94630.97;4202895;28;20063;-56
2023/03/04 07:08:30;;;;;;;27.60;18.02;;;;;;;6.49;72.69;94633.28;4204379;28;20048;-56
2023/03/04 07:10:31;;;;;;;30.80;20.17;;;;;;;6.48;72.28;94624.66;4198171;28;20048;-56
2023/03/04 07:12:33;;;;;;;24.95;17.33;;;;;;;6.52;72.11;94631.25;4201785;28;20048;-56
2023/03/04 07:14:34;;;;;;;23.30;17.13;;;;;;;6.59;71.82;94626.31;4215113;28;20040;-54
2023/03/04 07:16:36;;;;;;;30.25;18.98;;;;;;;6.66;71.64;94629.19;4214787;28;20738;-55
2023/03/04 07:18:38;;;;;;;20.08;13.05;;;;;;;6.26;71.56;94628.34;4213613;28;20078;-54
2023/03/04 07:20:40;;;;;;;22.63;14.98;;;;;;;6.19;72.18;94632.41;4214965;28;20101;-57
2023/03/04 07:22:45;;;;;;;18.40;11.90;;;;;;;5.93;72.57;94640.66;4214905;28;20078;-54
2023/03/04 07:24:46;;;;;;;19.88;12.20;;;;;;;5.83;73.27;94637.22;4215196;28;20113;-53
2023/03/04 07:26:48;;;;;;;20.63;13.15;;;;;;;5.92;73.88;94633.84;4213607;28;20070;-56
2023/03/04 07:28:53;;;;;;;20.63;13.10;;;;;;;6.14;73.39;94640.63;4213143;28;20079;-56
2023/03/04 07:30:55;;;;;;;19.10;12.43;;;;;;;5.95;73.55;94637.97;4213075;28;20688;-53
2023/03/04 07:32:57;;;;;;;21.05;13.65;;;;;;;5.98;73.64;94639.47;4212275;28;20131;-54
2023/03/04 07:34:59;;;;;;;18.80;11.45;;;;;;;5.88;73.41;94635.06;4211935;28;20081;-55
2023/03/04 07:37:00;;;;;;;20.30;11.90;;;;;;;6.00;74.14;94640.16;4213062;28;20044;-53
2023/03/04 07:39:03;;;;;;;19.80;13.50;;;;;;;6.19;73.39;94639.41;4213704;28;20052;-55
2023/03/04 07:41:11;;;;;;;21.63;13.75;;;;;;;6.41;72.73;94638.34;4214268;28;20434;-59
2023/03/04 07:43:12;;;;;;;21.08;13.63;;;;;;;6.56;71.87;94632.63;4214419;28;20047;-55
2023/03/04 07:45:14;;;;;;;22.67;14.10;;;;;;;6.57;71.69;94634.25;4214610;28;20565;-57
2023/03/04 07:47:16;;;;;;;22.70;14.73;;;;;;;6.70;71.75;94628.78;4214682;28;20481;-54
2023/03/04 07:49:17;;;;;;;23.08;13.90;;;;;;;6.90;71.35;94628.78;4214272;28;20735;-54
2023/03/04 07:51:21;;;;;;;24.75;13.63;;;;;;;6.77;70.13;94621.25;4214012;28;20101;-55
2023/03/04 07:53:25;;;;;;;24.77;14.45;;;;;;;6.76;70.65;94627.41;4207657;28;20094;-54
2023/03/04 07:55:29;;;;;;;20.67;13.57;;;;;;;6.91;71.18;94623.44;4193001;28;20075;-55
2023/03/04 07:57:31;;;;;;;20.77;12.32;;;;;;;7.07;70.02;94622.84;4211304;28;20059;-55
2023/03/04 07:59:32;;;;;;;19.02;13.07;;;;;;;7.22;69.64;94612.00;4210126;28;20056;-55
2023/03/04 08:01:36;;;;;;;19.88;12.57;;;;;;;7.28;69.34;94624.47;4199684;28;20106;-55
2023/03/04 08:03:38;;;;;;;19.23;12.20;;;;;;;7.38;68.76;94620.06;4189104;28;20051;-52
2023/03/04 08:05:40;;;;;;;20.98;13.23;;;;;;;7.37;68.44;94616.63;4194972;28;20043;-51
2023/03/04 08:07:41;;;;;;;28.23;14.10;;;;;;;7.42;68.04;94616.22;4188870;28;20043;-52
2023/03/04 08:09:43;;;;;;;24.80;14.43;;;;;;;7.49;67.74;94612.06;4207071;28;20048;-53
2023/03/04 08:11:45;;;;;;;23.48;14.35;;;;;;;7.52;67.58;94619.59;4195739;28;20097;-59
2023/03/04 08:13:47;;;;;;;21.80;14.02;;;;;;;7.57;66.83;94619.16;4196206;28;20059;-57
2023/03/04 08:15:49;;;;;;;23.67;14.63;;;;;;;7.50;66.75;94612.88;4192923;28;20044;-57
2023/03/04 08:17:51;;;;;;;20.95;13.00;;;;;;;7.20;67.51;94617.34;4186926;28;20052;-51
2023/03/04 08:19:52;;;;;;;20.65;14.57;;;;;;;7.18;67.65;94620.13;4197429;28;20080;-54
2023/03/04 08:21:54;;;;;;;21.75;14.00;;;;;;;7.20;68.24;94619.94;4197198;28;20678;-57
2023/03/04 08:24:01;;;;;;;23.38;13.98;;;;;;;7.20;67.83;94619.94;4182104;28;20064;-53
2023/03/04 08:26:12;;;;;;;20.73;12.40;;;;;;;6.80;68.03;94617.53;4182679;28;20471;-53
2023/03/04 08:28:13;;;;;;;22.35;12.98;;;;;;;6.61;68.99;94628.78;4195840;28;20083;-53
2023/03/04 08:30:15;;;;;;;23.42;12.75;;;;;;;6.30;69.72;94624.53;4181102;28;20098;-52
2023/03/04 08:32:20;;;;;;;22.73;12.93;;;;;;;6.22;70.85;94618.34;4181729;28;20064;-56
2023/03/04 08:34:24;;;;;;;23.67;13.75;;;;;;;6.42;70.71;94614.78;4182059;28;20076;-57
2023/03/04 08:36:26;;;;;;;30.08;14.88;;;;;;;6.38;70.32;94612.59;4196106;28;20052;-56
2023/03/04 08:38:33;;;;;;;23.70;15.52;;;;;;;6.37;70.60;94617.00;4192778;28;20052;-56
2023/03/04 08:40:35;;;;;;;18.88;12.50;;;;;;;6.21;70.40;94609.69;4191509;28;20667;-53
2023/03/04 08:42:36;;;;;;;24.67;15.90;;;;;;;6.13;71.46;94615.59;4185770;28;20102;-55
2023/03/04 08:44:38;;;;;;;20.52;13.93;;;;;;;6.04;71.08;94616.38;4198299;28;20509;-56
2023/03/04 08:46:41;;;;;;;24.65;14.30;;;;;;;6.13;71.34;94612.97;4197713;28;20131;-53
2023/03/04 08:48:42;;;;;;;29.77;15.50;;;;;;;5.96;71.96;94618.84;4203740;28;20048;-55
2023/03/04 08:50:45;;;;;;;24.92;14.95;;;;;;;6.07;71.91;94610.91;4187568;28;20327;-56
2023/03/04 08:52:47;;;;;;;25.75;17.05;;;;;;;6.35;71.53;94608.50;4197087;28;20048;-56
2023/03/04 08:54:48;;;;;;;31.33;18.10;;;;;;;6.41;70.80;94607.13;4187499;28;20048;-53
2023/03/04 08:56:50;;;;;;;25.92;16.27;;;;;;;6.09;70.77;94611.59;4202692;28;20044;-57
2023/03/04 08:58:52;;;;;;;24.90;14.60;;;;;;;6.14;71.33;94614.63;4213561;28;20048;-56
2023/03/04 09:00:53;;;;;;;22.17;13.75;;;;;;;6.10;70.95;94604.63;4202126;28;20068;-53
2023/03/04 09:02:57;;;;;;;22.30;14.45;;;;;;;6.05;71.19;94615.44;4195996;28;20095;-56
2023/03/04 09:04:59;;;;;;;22.98;14.38;;;;;;;6.14;71.03;94604.22;4188873;28;20049;-55
2023/03/04 09:07:01;;;;;;;26.77;15.00;;;;;;;6.32;70.86;94599.19;4197647;28;20063;-54
2023/03/04 09:09:03;;;;;;;24.38;14.93;;;;;;;6.57;70.35;94604.81;4184510;28;20063;-53
2023/03/04 09:11:05;;;;;;;24.10;15.20;;;;;;;6.54;69.92;94605.91;4192647;28;20061;-54
2023/03/04 09:13:10;;;;;;;20.25;12.90;;;;;;;6.61;69.71;94600.16;4193730;28;20056;-50
2023/03/04 09:15:12;;;;;;;21.33;13.95;;;;;;;6.94;69.54;94588.47;4185178;28;20076;-55
2023/03/04 09:17:13;;;;;;;18.92;11.88;;;;;;;7.25;68.67;94590.88;4180950;28;20076;-56
2023/03/04 09:19:15;;;;;;;20.20;12.27;;;;;;;7.53;67.45;94589.16;4186007;28;20048;-55
2023/03/04 09:21:17;;;;;;;18.05;11.50;;;;;;;7.79;66.32;94587.53;4194618;28;20052;-57
2023/03/04 09:23:21;;;;;;;17.80;11.60;;;;;;;8.01;65.65;94580.28;4187954;28;20398;-54
2023/03/04 09:25:26;;;;;;;20.13;11.60;;;;;;;8.14;65.10;94582.53;4197012;28;20040;-57
2023/03/04 09:27:28;;;;;;;23.33;12.25;;;;;;;8.15;64.50;94574.56;4188752;28;20099;-54
2023/03/04 09:29:30;;;;;;;23.05;12.70;;;;;;;7.99;64.56;94577.81;4195544;28;20121;-53